^^
Grace C. Lehan Memorial Weather Station Historical Data
Daily Summary for June 20, 2021 Units:  Metric    English   Both
Daily Weekly Monthly Yearly
  High: Low: Average:
Temperature: 2.3 °C -6.3 °C -1.9 °C
Dew Point: -5.6 °C -9.2 °C -7.2 °C
Humidity: 91% 43.3% 69%
Wind Speed: 1.8km/h 0km/h 0.2km/h
Wind Gust: 9.7km/h - -
Wind- - SSE
Pressure: 1028 hPa 1020.9 hPa -
Precipitation: 0 mm    
 
 
Tabular Data for June 20, 2021
Time Temperature Dew Point Pressure Wind Wind Speed Wind Gust Humidity Rainfall Rate (Hourly) solar
00:04 -3.4 °C -6.6 °C 1023.6 hPa NNW 0.3 km/h 8 km/h 79% 0 mm 0 W/m2
00:09 -3.4 °C -6.6 °C 1023.6 hPa Calm   6.4 km/h 79% 0 mm 0 W/m2
00:14 -3.5 °C -6.6 °C 1023.6 hPa Calm   6.4 km/h 79.4% 0 mm 0 W/m2
00:19 -3.6 °C -6.5 °C 1023.6 hPa NNW 0.2 km/h 6.4 km/h 80% 0 mm 0 W/m2
00:24 -3.6 °C -6.6 °C 1023.6 hPa Calm   6.4 km/h 80% 0 mm 0 W/m2
00:29 -3.7 °C -6.6 °C 1023.9 hPa NNW 0.2 km/h 6.4 km/h 80% 0 mm 0 W/m2
00:34 -3.7 °C -6.7 °C 1023.9 hPa NNW 0.2 km/h 6.4 km/h 80% 0 mm 0 W/m2
00:39 -3.8 °C -6.7 °C 1023.9 hPa Calm   3.2 km/h 80% 0 mm 0 W/m2
00:44 -3.8 °C -6.7 °C 1023.9 hPa NNW 0.2 km/h 3.2 km/h 80% 0 mm 0 W/m2
00:49 -3.8 °C -6.8 °C 1023.9 hPa NNW 0.2 km/h 3.2 km/h 80% 0 mm 0 W/m2
00:54 -3.9 °C -6.7 °C 1024.3 hPa Calm   3.2 km/h 80.5% 0 mm 0 W/m2
00:59 -3.9 °C -6.7 °C 1024.3 hPa NNW 0.2 km/h 3.2 km/h 81% 0 mm 0 W/m2
01:04 -3.9 °C -6.7 °C 1024.3 hPa Calm   3.2 km/h 81% 0 mm 0 W/m2
01:09 -3.9 °C -6.7 °C 1024.3 hPa Calm   1.6 km/h 81% 0 mm 0 W/m2
01:14 -4 °C -6.8 °C 1024.3 hPa Calm   1.6 km/h 81% 0 mm 0 W/m2
01:19 -4.1 °C -6.8 °C 1024.3 hPa Calm   1.6 km/h 81% 0 mm 0 W/m2
01:24 -4.1 °C -6.8 °C 1024.3 hPa Calm   1.6 km/h 81% 0 mm 0 W/m2
01:29 -4.1 °C -6.9 °C 1024.3 hPa Calm   1.6 km/h 81% 0 mm 0 W/m2
01:34 -4.2 °C -6.9 °C 1024.3 hPa Calm   1.6 km/h 81.2% 0 mm 0 W/m2
01:39 -4.2 °C -6.9 °C 1024.3 hPa Calm     81.5% 0 mm 0 W/m2
01:44 -4.3 °C -6.9 °C 1024.3 hPa Calm     82% 0 mm 0 W/m2
01:49 -4.3 °C -6.9 °C 1024.3 hPa Calm     82% 0 mm 0 W/m2
01:54 -4.3 °C -6.9 °C 1024.3 hPa Calm     82% 0 mm 0 W/m2
01:59 -4.4 °C -7 °C 1024.3 hPa Calm     82% 0 mm 0 W/m2
02:04 -4.4 °C -6.9 °C 1024.3 hPa Calm     82.3% 0 mm 0 W/m2
02:09 -4.4 °C -7.1 °C 1024.3 hPa Calm     82% 0 mm 0 W/m2
02:14 -4.4 °C -7.1 °C 1024.3 hPa Calm     82% 0 mm 0 W/m2
02:19 -4.5 °C -7 °C 1024.3 hPa Calm     82.5% 0 mm 0 W/m2
02:24 -4.6 °C -7 °C 1024.6 hPa Calm     83% 0 mm 0 W/m2
02:29 -4.6 °C -7.1 °C 1024.6 hPa Calm     83% 0 mm 0 W/m2
02:34 -4.7 °C -7.1 °C 1024.6 hPa Calm     83% 0 mm 0 W/m2
02:39 -4.8 °C -7.2 °C 1024.6 hPa Calm     83% 0 mm 0 W/m2
02:44 -4.8 °C -7.3 °C 1024.3 hPa Calm     83% 0 mm 0 W/m2
02:49 -4.9 °C -7.3 °C 1024.6 hPa Calm     83% 0 mm 0 W/m2
02:54 -4.9 °C -7.3 °C 1024.6 hPa Calm     83.6% 0 mm 0 W/m2
02:59 -4.9 °C -7.2 °C 1024.6 hPa Calm     84% 0 mm 0 W/m2
03:04 -5 °C -7.3 °C 1024.6 hPa Calm     84% 0 mm 0 W/m2
03:09 -5.1 °C -7.3 °C 1024.6 hPa Calm     84% 0 mm 0 W/m2
03:14 -5.2 °C -7.3 °C 1024.9 hPa Calm     84.5% 0 mm 0 W/m2
03:19 -5.2 °C -7.3 °C 1024.9 hPa Calm     85% 0 mm 0 W/m2
03:24 -5.2 °C -7.3 °C 1024.9 hPa Calm     85% 0 mm 0 W/m2
03:29 -5.3 °C -7.4 °C 1024.9 hPa Calm     85% 0 mm 0 W/m2
03:34 -5.3 °C -7.3 °C 1024.9 hPa Calm     85.4% 0 mm 0 W/m2
04:14 -5.4 °C -7.4 °C 1025.3 hPa Calm     86% 0 mm 0 W/m2
04:19 -5.5 °C -7.4 °C 1025.6 hPa Calm     86% 0 mm 0 W/m2
04:24 -5.6 °C -7.4 °C 1025.6 hPa Calm     86.5% 0 mm 0 W/m2
04:29 -5.6 °C -7.4 °C 1025.6 hPa Calm     87% 0 mm 0 W/m2
04:34 -5.6 °C -7.4 °C 1025.6 hPa Calm     87% 0 mm 0 W/m2
04:39 -5.6 °C -7.4 °C 1025.6 hPa Calm     87% 0 mm 0 W/m2
04:44 -5.6 °C -7.4 °C 1025.6 hPa Calm     87% 0 mm 0 W/m2
04:49 -5.6 °C -7.4 °C 1025.6 hPa Calm     87% 0 mm 0 W/m2
04:54 -5.7 °C -7.5 °C 1025.6 hPa Calm     87% 0 mm 0 W/m2
04:59 -5.7 °C -7.5 °C 1026 hPa Calm     87% 0 mm 0 W/m2
05:04 -5.7 °C -7.6 °C 1026 hPa Calm     87% 0 mm 0 W/m2
05:09 -5.8 °C -7.6 °C 1025.6 hPa Calm     87% 0 mm 0 W/m2
05:14 -5.8 °C -7.7 °C 1025.6 hPa Calm     87% 0 mm 0 W/m2
05:19 -5.8 °C -7.6 °C 1025.6 hPa Calm     87.9% 0 mm 0 W/m2
05:24 -5.9 °C -7.6 °C 1025.6 hPa Calm     88% 0 mm 0 W/m2
05:29 -5.9 °C -7.6 °C 1026 hPa Calm     88% 0 mm 0 W/m2
05:34 -6 °C -7.7 °C 1026 hPa Calm     88% 0 mm 0 W/m2
05:39 -6 °C -7.7 °C 1026 hPa Calm     88% 0 mm 0 W/m2
05:44 -6 °C -7.7 °C 1026 hPa Calm   1.6 km/h 88% 0 mm 0 W/m2
05:49 -6 °C -7.7 °C 1026 hPa Calm   1.6 km/h 88% 0 mm 0 W/m2
05:54 -6 °C -7.7 °C 1026.3 hPa Calm   1.6 km/h 88% 0 mm 0 W/m2
05:59 -6 °C -7.7 °C 1026.3 hPa Calm   1.6 km/h 88% 0 mm 0 W/m2
06:04 -5.9 °C -7.5 °C 1026.3 hPa Calm   1.6 km/h 88.9% 0 mm 0 W/m2
06:09 -5.9 °C -7.4 °C 1026.3 hPa Calm     89% 0 mm 0 W/m2
06:14 -5.9 °C -7.4 °C 1026.6 hPa Calm     89% 0 mm 0 W/m2
06:19 -5.9 °C -7.4 °C 1026.3 hPa Calm     89% 0 mm 0 W/m2
06:24 -5.9 °C -7.4 °C 1026.3 hPa Calm     88.9% 0 mm 0 W/m2
06:29 -5.9 °C -7.6 °C 1026.6 hPa Calm     88% 0 mm 0 W/m2
06:34 -5.9 °C -7.6 °C 1026.3 hPa Calm     88% 0 mm 0 W/m2
06:39 -6 °C -7.7 °C 1026.3 hPa Calm     88% 0 mm 0 W/m2
06:44 -6.1 °C -7.7 °C 1026.6 hPa Calm     88% 0 mm 0 W/m2
06:49 -6.1 °C -7.7 °C 1026.6 hPa Calm     88% 0 mm 0 W/m2
06:54 -6.1 °C -7.8 °C 1026.6 hPa Calm     88% 0 mm 0 W/m2
06:59 -6.2 °C -7.8 °C 1027 hPa Calm     88% 0 mm 0 W/m2
07:04 -6.2 °C -7.8 °C 1027 hPa Calm     88% 0 mm 0 W/m2
07:09 -6.2 °C -7.9 °C 1027 hPa Calm     88% 0 mm 0 W/m2
07:14 -6.2 °C -7.8 °C 1027 hPa Calm     88.4% 0 mm 5 W/m2
07:19 -6.3 °C -7.8 °C 1027 hPa Calm     89% 0 mm 7 W/m2
07:24 -6.3 °C -7.8 °C 1027.3 hPa Calm     88.6% 0 mm 9 W/m2
07:29 -6.3 °C -7.8 °C 1027 hPa Calm     89% 0 mm 12 W/m2
07:34 -6.3 °C -7.8 °C 1027 hPa Calm     89% 0 mm 18 W/m2
07:39 -6.3 °C -7.8 °C 1027 hPa Calm     89% 0 mm 30 W/m2
07:44 -6.2 °C -7.7 °C 1027 hPa Calm     89% 0 mm 54 W/m2
07:49 -6.1 °C -7.5 °C 1027 hPa Calm     89.5% 0 mm 62 W/m2
07:54 -5.7 °C -7.1 °C 1027.3 hPa Calm     90% 0 mm 69 W/m2
07:59 -5.3 °C -6.6 °C 1027.3 hPa Calm     90.8% 0 mm 93 W/m2
08:00 -5.1 °C -6.3 °C 1027.3 hPa Calm     91% 0 mm 93 W/m2
08:09 -4.6 °C -5.9 °C 1027.7 hPa Calm     90% 0 mm 116 W/m2
08:14 -4.2 °C -5.7 °C 1027.7 hPa Calm     89.3% 0 mm 120 W/m2
08:19 -3.9 °C -5.6 °C 1028 hPa Calm     87.9% 0 mm 155 W/m2
08:24 -3.6 °C -5.6 °C 1028 hPa Calm     86.3% 0 mm 179 W/m2
08:29 -3.3 °C -5.6 °C 1028 hPa Calm     84.5% 0 mm 179 W/m2
08:34 -3.1 °C -5.6 °C 1028 hPa NNW 0.6 km/h 4.8 km/h 82.8% 0 mm 163 W/m2
08:39 -2.9 °C -5.6 °C 1028 hPa NNW 0.3 km/h 4.8 km/h 81.6% 0 mm 192 W/m2
08:44 -2.7 °C -5.6 °C 1028 hPa Calm   4.8 km/h 80.6% 0 mm 195 W/m2
08:49 -2.6 °C -5.7 °C 1028 hPa Calm   4.8 km/h 79.1% 0 mm 188 W/m2
08:54 -2.6 °C -5.9 °C 1027.7 hPa Calm   4.8 km/h 77.6% 0 mm 197 W/m2
08:59 -2.5 °C -6.1 °C 1028 hPa Calm   4.8 km/h 76.3% 0 mm 227 W/m2
09:04 -2.4 °C -6.1 °C 1028 hPa Calm   4.8 km/h 76% 0 mm 227 W/m2
09:09 -2.2 °C -5.9 °C 1027.7 hPa Calm     75.7% 0 mm 160 W/m2
09:14 -2.2 °C -6.2 °C 1027.7 hPa Calm   1.6 km/h 74.5% 0 mm 199 W/m2
09:19 -2.3 °C -6.4 °C 1028 hPa Calm   1.6 km/h 73.6% 0 mm 142 W/m2
09:24 -2.3 °C -6.3 °C 1028 hPa Calm   1.6 km/h 74% 0 mm 160 W/m2
09:29 -2.3 °C -6.4 °C 1027.7 hPa Calm   1.6 km/h 73.1% 0 mm 139 W/m2
09:34 -2.4 °C -6.9 °C 1027.7 hPa Calm   1.6 km/h 71.3% 0 mm 165 W/m2
09:39 -2.6 °C -7.1 °C 1028 hPa Calm     71.5% 0 mm 169 W/m2
09:44 -2.7 °C -6.8 °C 1028 hPa NNW 0.2 km/h 3.2 km/h 72.8% 0 mm 169 W/m2
09:49 -2.6 °C -6.7 °C 1028 hPa Calm   3.2 km/h 73% 0 mm 63 W/m2
09:54 -2.4 °C -6.7 °C 1028 hPa Calm   3.2 km/h 72.6% 0 mm 132 W/m2
09:59 -2.3 °C -6.7 °C 1028 hPa North 1.4 km/h 4.8 km/h 71.8% 0 mm 135 W/m2
10:04 -2.2 °C -6.8 °C 1028 hPa Calm   4.8 km/h 71% 0 mm 185 W/m2
10:09 -2.1 °C -6.7 °C 1028 hPa Calm     71% 0 mm 237 W/m2
10:14 -1.9 °C -6.8 °C 1028 hPa Calm     69.7% 0 mm 322 W/m2
10:19 -1.7 °C -6.4 °C 1028 hPa North 0.2 km/h 3.2 km/h 70% 0 mm 367 W/m2
10:24 -1.2 °C -6.2 °C 1028 hPa North 0.2 km/h 3.2 km/h 68.7% 0 mm 413 W/m2
10:29 -0.8 °C -6.2 °C 1028 hPa Calm   3.2 km/h 66.5% 0 mm 418 W/m2
10:34 -0.4 °C -6.2 °C 1028 hPa Calm   3.2 km/h 65% 0 mm 427 W/m2
10:39 -0.1 °C -5.8 °C 1027.7 hPa Calm     65.1% 0 mm 420 W/m2
10:44 0.3 °C -5.8 °C 1027.7 hPa Calm     63.5% 0 mm 411 W/m2
10:49 0.3 °C -6.1 °C 1027.3 hPa Calm     62.5% 0 mm 327 W/m2
10:54 0.4 °C -5.7 °C 1027.3 hPa North 0.5 km/h 4.8 km/h 63.5% 0 mm 107 W/m2
10:59 0.6 °C -5.7 °C 1027 hPa North 0.2 km/h 4.8 km/h 63.1% 0 mm 113 W/m2
11:04 0.6 °C -6.2 °C 1027 hPa North 0.6 km/h 4.8 km/h 60.6% 0 mm 229 W/m2
11:09 0.5 °C -6.3 °C 1027 hPa Calm   3.2 km/h 60% 0 mm 169 W/m2
11:14 0.4 °C -6.3 °C 1026.6 hPa Calm   3.2 km/h 60.6% 0 mm 169 W/m2
11:19 0.4 °C -6.2 °C 1027 hPa Calm   3.2 km/h 61.2% 0 mm 176 W/m2
11:24 0.3 °C -6.4 °C 1027 hPa Calm   3.2 km/h 60.5% 0 mm 190 W/m2
11:29 0.2 °C -6.6 °C 1026.6 hPa Calm   3.2 km/h 60.2% 0 mm 192 W/m2
11:34 0.2 °C -6.6 °C 1026.6 hPa Calm   3.2 km/h 60.3% 0 mm 265 W/m2
11:39 0.2 °C -6.6 °C 1026.6 hPa Calm     60.3% 0 mm 292 W/m2
11:44 0.3 °C -6.8 °C 1026.6 hPa North 0.5 km/h 3.2 km/h 59% 0 mm 225 W/m2
11:49 0.2 °C -6.9 °C 1026.3 hPa Calm   3.2 km/h 58.5% 0 mm 155 W/m2
11:54 0.2 °C -7.1 °C 1026.3 hPa Calm   3.2 km/h 57.8% 0 mm 98 W/m2
11:59 0.4 °C -6.6 °C 1026.3 hPa Calm   3.2 km/h 59.5% 0 mm 362 W/m2
12:00 0.6 °C -6.3 °C 1026.3 hPa Calm   3.2 km/h 60% 0 mm 362 W/m2
12:09 0.6 °C -7 °C 1026.3 hPa Calm     56.6% 0 mm 297 W/m2
12:14 0.7 °C -6.7 °C 1026 hPa Calm     57.7% 0 mm 371 W/m2
12:19 0.8 °C -6.9 °C 1026 hPa Calm     56.4% 0 mm 338 W/m2
12:24 0.8 °C -7.2 °C 1025.6 hPa Calm     55.1% 0 mm 292 W/m2
12:29 0.7 °C -7.3 °C 1025.6 hPa Calm     55% 0 mm 98 W/m2
12:34 0.7 °C -7.4 °C 1025.6 hPa Calm     54.5% 0 mm 123 W/m2
12:39 0.8 °C -7.3 °C 1025.3 hPa Calm     54.6% 0 mm 434 W/m2
12:44 1.1 °C -7.4 °C 1025.3 hPa North 1 km/h 3.2 km/h 53% 0 mm 461 W/m2
12:49 1.3 °C -7.1 °C 1025.3 hPa Calm   3.2 km/h 53.5% 0 mm 334 W/m2
12:54 1.7 °C -7 °C 1025.3 hPa Calm   3.2 km/h 52.3% 0 mm 95 W/m2
12:59 1.8 °C -7.7 °C 1025.3 hPa Calm   3.2 km/h 49.1% 0 mm 104 W/m2
13:04 1.8 °C -7.8 °C 1025.3 hPa Calm   3.2 km/h 48.8% 0 mm 111 W/m2
13:09 1.8 °C -7.6 °C 1024.9 hPa Calm     49.7% 0 mm 439 W/m2
13:14 1.9 °C -7.7 °C 1024.9 hPa NNE 0.3 km/h 4.8 km/h 48.8% 0 mm 334 W/m2
13:19 1.9 °C -8.1 °C 1024.9 hPa NNE 1.1 km/h 4.8 km/h 47.3% 0 mm 334 W/m2
13:23 2 °C -8.1 °C 1024.9 hPa NNE 0.5 km/h 4.8 km/h 47.1% 0 mm 264 W/m2
13:29 2 °C -7.9 °C 1024.9 hPa Calm   4.8 km/h 48% 0 mm 343 W/m2
13:34 2 °C -7.9 °C 1024.6 hPa NNE 1.8 km/h 4.8 km/h 47.8% 0 mm 285 W/m2
13:39 1.9 °C -8.2 °C 1024.6 hPa NNE 0.3 km/h 4.8 km/h 47% 0 mm 290 W/m2
13:44 1.8 °C -8.1 °C 1024.6 hPa NNE 0.5 km/h 4.8 km/h 47.6% 0 mm 167 W/m2
13:49 1.8 °C -8.1 °C 1024.3 hPa NE 0.8 km/h 4.8 km/h 47.8% 0 mm 156 W/m2
13:54 1.8 °C -8.3 °C 1024.3 hPa East 1.1 km/h 4.8 km/h 47.1% 0 mm 186 W/m2
13:59 1.7 °C -8 °C 1024.3 hPa ESE 0.2 km/h 4.8 km/h 48.6% 0 mm 229 W/m2
14:04 1.8 °C -7.9 °C 1023.9 hPa Calm   4.8 km/h 48.6% 0 mm 271 W/m2
14:09 2.1 °C -7.9 °C 1024.3 hPa ESE 1.1 km/h 6.4 km/h 47.4% 0 mm 220 W/m2
14:14 2.2 °C -8 °C 1023.9 hPa Calm   6.4 km/h 46.8% 0 mm 188 W/m2
14:19 2.3 °C -8 °C 1023.9 hPa ESE 0.2 km/h 6.4 km/h 46.4% 0 mm 146 W/m2
14:24 2.3 °C -8.4 °C 1024.3 hPa ESE 1.1 km/h 6.4 km/h 45.1% 0 mm 171 W/m2
14:29 2.2 °C -8.4 °C 1024.3 hPa ESE 0.5 km/h 6.4 km/h 45.1% 0 mm 253 W/m2
14:34 2.2 °C -8.4 °C 1023.9 hPa ESE 0.8 km/h 6.4 km/h 45.4% 0 mm 193 W/m2
14:39 2.1 °C -8.6 °C 1023.9 hPa ESE 0.5 km/h 6.4 km/h 45% 0 mm 56 W/m2
14:43 2.1 °C -8.8 °C 1023.9 hPa ESE 0.2 km/h 6.4 km/h 44.6% 0 mm 37 W/m2
14:49 2.2 °C -8.8 °C 1023.9 hPa SE 1.8 km/h 8 km/h 44% 0 mm 35 W/m2
14:54 2.2 °C -8.9 °C 1023.6 hPa SE 1 km/h 8 km/h 43.5% 0 mm 32 W/m2
14:59 2.1 °C -9.1 °C 1023.6 hPa SE 1.1 km/h 8 km/h 43.3% 0 mm 28 W/m2
15:04 2 °C -9.1 °C 1023.6 hPa Calm   8 km/h 43.7% 0 mm 28 W/m2
15:06 2 °C -9.2 °C 1023.6 hPa Calm   3.2 km/h 43.4% 0 mm 26 W/m2
15:30 2 °C -8.9 °C 1023.6 hPa Calm   6.4 km/h 44% 0 mm 25 W/m2
16:04 1.8 °C -8.7 °C 1023.6 hPa SSE 0.5 km/h 6.4 km/h 45.5% 0 mm 25 W/m2
16:09 1.8 °C -8.8 °C 1023.2 hPa SSE 0.2 km/h 3.2 km/h 45.3% 0 mm 16 W/m2
16:14 1.8 °C -8.5 °C 1023.2 hPa SSE 0.2 km/h 4.8 km/h 46.3% 0 mm 12 W/m2
16:19 1.7 °C -8.9 °C 1023.2 hPa SSE 1 km/h 4.8 km/h 45.1% 0 mm 9 W/m2
16:24 1.7 °C -9 °C 1023.2 hPa SSE 0.2 km/h 4.8 km/h 45% 0 mm 7 W/m2
16:29 1.6 °C -8.8 °C 1023.2 hPa Calm   4.8 km/h 45.8% 0 mm 0 W/m2
16:34 1.5 °C -8.8 °C 1023.2 hPa SSE 0.2 km/h 4.8 km/h 46% 0 mm 0 W/m2
16:39 1.4 °C -8.7 °C 1023.2 hPa SSE 0.2 km/h 3.2 km/h 47.1% 0 mm 0 W/m2
16:44 1.3 °C -8.5 °C 1023.2 hPa Calm   3.2 km/h 48% 0 mm 0 W/m2
16:49 1.2 °C -8.4 °C 1023.2 hPa SSE 0.6 km/h 4.8 km/h 48.9% 0 mm 0 W/m2
16:54 1.1 °C -8.2 °C 1023.6 hPa SSE 0.5 km/h 4.8 km/h 49.9% 0 mm 0 W/m2
16:59 0.9 °C -8.1 °C 1023.6 hPa SSE 1.8 km/h 6.4 km/h 50.8% 0 mm 0 W/m2
17:04 0.8 °C -8.1 °C 1023.2 hPa SSE 1 km/h 6.4 km/h 51.4% 0 mm 0 W/m2
17:09 0.7 °C -8 °C 1023.2 hPa SSE 1.4 km/h 9.7 km/h 52.1% 0 mm 0 W/m2
17:14 0.6 °C -7.9 °C 1022.9 hPa SSE 1.8 km/h 9.7 km/h 53% 0 mm 0 W/m2
17:19 0.5 °C -7.8 °C 1022.9 hPa SSE 0.5 km/h 9.7 km/h 53.7% 0 mm 0 W/m2
17:24 0.4 °C -7.7 °C 1022.9 hPa SSE 0.3 km/h 9.7 km/h 54.5% 0 mm 0 W/m2
17:29 0.3 °C -7.7 °C 1022.9 hPa SSE 0.5 km/h 9.7 km/h 54.8% 0 mm 0 W/m2
17:34 0.2 °C -7.9 °C 1022.9 hPa Calm   9.7 km/h 54.4% 0 mm 0 W/m2
17:39 0.2 °C -7.8 °C 1022.9 hPa SSE 1 km/h 4.8 km/h 55% 0 mm 0 W/m2
17:44 0.1 °C -7.9 °C 1022.6 hPa SSE 1 km/h 4.8 km/h 55% 0 mm 0 W/m2
17:49 0.1 °C -7.8 °C 1022.6 hPa SSE 0.6 km/h 4.8 km/h 55.6% 0 mm 0 W/m2
17:54 0 °C -7.7 °C 1022.6 hPa Calm   4.8 km/h 56% 0 mm 0 W/m2
17:59 -0.1 °C -7.6 °C 1022.6 hPa SSE 0.5 km/h 6.4 km/h 56.8% 0 mm 0 W/m2
18:04 -0.2 °C -7.6 °C 1022.9 hPa SSE 0.3 km/h 6.4 km/h 57% 0 mm 0 W/m2
18:09 -0.2 °C -7.6 °C 1022.9 hPa Calm   4.8 km/h 57.3% 0 mm 0 W/m2
18:14 -0.3 °C -7.5 °C 1022.6 hPa Calm   4.8 km/h 58.1% 0 mm 0 W/m2
18:19 -0.3 °C -7.3 °C 1022.6 hPa Calm   4.8 km/h 59% 0 mm 0 W/m2
18:24 -0.4 °C -7.2 °C 1022.6 hPa Calm   4.8 km/h 60% 0 mm 0 W/m2
18:29 -0.4 °C -7.2 °C 1022.6 hPa Calm   4.8 km/h 60.2% 0 mm 0 W/m2
18:34 -0.5 °C -7.1 °C 1022.6 hPa Calm   4.8 km/h 61% 0 mm 0 W/m2
18:39 -0.6 °C -7.1 °C 1022.6 hPa Calm     61% 0 mm 0 W/m2
18:44 -0.6 °C -7 °C 1022.6 hPa Calm     61.8% 0 mm 0 W/m2
18:49 -0.6 °C -7 °C 1022.6 hPa Calm   1.6 km/h 62% 0 mm 0 W/m2
18:54 -0.6 °C -7 °C 1022.6 hPa Calm   1.6 km/h 62% 0 mm 0 W/m2
18:59 -0.7 °C -7.1 °C 1022.6 hPa Calm   1.6 km/h 62% 0 mm 0 W/m2
19:04 -0.7 °C -7.1 °C 1022.6 hPa Calm   1.6 km/h 62% 0 mm 0 W/m2
19:09 -0.8 °C -7.2 °C 1022.6 hPa Calm     62% 0 mm 0 W/m2
19:14 -0.8 °C -7.2 °C 1022.6 hPa Calm     62.2% 0 mm 0 W/m2
19:19 -0.8 °C -7 °C 1022.6 hPa Calm   1.6 km/h 63% 0 mm 0 W/m2
19:24 -0.9 °C -7.1 °C 1022.6 hPa SSE 0.2 km/h 3.2 km/h 63% 0 mm 0 W/m2
19:29 -0.9 °C -7.1 °C 1022.6 hPa Calm   3.2 km/h 63% 0 mm 0 W/m2
19:34 -0.9 °C -7.2 °C 1022.6 hPa Calm   3.2 km/h 62.6% 0 mm 0 W/m2
19:39 -0.9 °C -7.3 °C 1022.2 hPa SSE 0.3 km/h 4.8 km/h 62.2% 0 mm 0 W/m2
19:44 -0.9 °C -7.3 °C 1022.6 hPa Calm   4.8 km/h 62.1% 0 mm 0 W/m2
19:49 -0.9 °C -7.3 °C 1022.6 hPa Calm   4.8 km/h 62% 0 mm 0 W/m2
19:54 -0.9 °C -7.3 °C 1022.6 hPa Calm   4.8 km/h 62% 0 mm 0 W/m2
19:58 -0.9 °C -7.3 °C 1022.2 hPa Calm   4.8 km/h 62% 0 mm 0 W/m2
20:04 -0.8 °C -7.2 °C 1022.2 hPa South 0.8 km/h 1.6 km/h 62% 0 mm 0 W/m2
20:09 -0.8 °C -7.2 °C 1022.2 hPa Calm   1.6 km/h 62% 0 mm 0 W/m2
20:14 -0.8 °C -7.2 °C 1022.2 hPa Calm   1.6 km/h 62% 0 mm 0 W/m2
20:19 -0.8 °C -7.3 °C 1022.2 hPa South 1 km/h 4.8 km/h 61.3% 0 mm 0 W/m2
20:24 -0.8 °C -7.3 °C 1022.2 hPa South 0.8 km/h 4.8 km/h 61% 0 mm 0 W/m2
20:29 -0.8 °C -7.4 °C 1021.9 hPa South 1.1 km/h 4.8 km/h 61% 0 mm 0 W/m2
20:34 -0.9 °C -7.4 °C 1021.9 hPa Calm   4.8 km/h 61.4% 0 mm 0 W/m2
20:39 -0.9 °C -7.3 °C 1021.9 hPa South 0.3 km/h 6.4 km/h 62% 0 mm 0 W/m2
20:44 -1 °C -7.3 °C 1021.9 hPa South 0.5 km/h 6.4 km/h 62% 0 mm 0 W/m2
20:49 -1.1 °C -7.3 °C 1021.9 hPa Calm   6.4 km/h 62.5% 0 mm 0 W/m2
20:54 -1.1 °C -7.3 °C 1021.9 hPa Calm   6.4 km/h 63% 0 mm 0 W/m2
20:59 -1.2 °C -7.2 °C 1021.9 hPa Calm   6.4 km/h 63.7% 0 mm 0 W/m2
21:04 -1.2 °C -7.1 °C 1021.9 hPa Calm   6.4 km/h 64.2% 0 mm 0 W/m2
21:09 -1.2 °C -7 °C 1021.9 hPa Calm   3.2 km/h 64.8% 0 mm 0 W/m2
21:14 -1.3 °C -7 °C 1021.9 hPa South 0.2 km/h 3.2 km/h 65% 0 mm 0 W/m2
21:19 -1.3 °C -6.9 °C 1021.6 hPa Calm   3.2 km/h 65.6% 0 mm 0 W/m2
21:24 -1.3 °C -6.8 °C 1021.6 hPa Calm   3.2 km/h 66% 0 mm 0 W/m2
21:29 -1.4 °C -6.8 °C 1021.9 hPa Calm   3.2 km/h 66.4% 0 mm 0 W/m2
21:34 -1.4 °C -6.8 °C 1021.6 hPa Calm   3.2 km/h 66.7% 0 mm 0 W/m2
21:39 -1.4 °C -6.8 °C 1021.6 hPa Calm     67% 0 mm 0 W/m2
21:44 -1.5 °C -6.8 °C 1021.6 hPa Calm     67% 0 mm 0 W/m2
21:49 -1.5 °C -6.8 °C 1021.6 hPa Calm     67.4% 0 mm 0 W/m2
21:54 -1.6 °C -6.7 °C 1021.6 hPa Calm     68% 0 mm 0 W/m2
21:59 -1.6 °C -6.6 °C 1021.6 hPa Calm   1.6 km/h 68.2% 0 mm 0 W/m2
22:04 -1.5 °C -6.4 °C 1021.6 hPa South 0.5 km/h 4.8 km/h 69% 0 mm 0 W/m2
22:09 -1.4 °C -6.4 °C 1021.2 hPa South 0.5 km/h 4.8 km/h 69% 0 mm 0 W/m2
22:14 -1.3 °C -6.2 °C 1021.2 hPa South 0.6 km/h 4.8 km/h 69.1% 0 mm 0 W/m2
22:19 -1.2 °C -5.9 °C 1021.2 hPa Calm   4.8 km/h 70% 0 mm 0 W/m2
22:24 -1.1 °C -5.8 °C 1021.2 hPa Calm   4.8 km/h 70% 0 mm 0 W/m2
22:29 -1 °C -5.8 °C 1020.9 hPa Calm   4.8 km/h 70% 0 mm 0 W/m2
22:34 -1 °C -5.8 °C 1020.9 hPa Calm   4.8 km/h 70% 0 mm 0 W/m2
22:39 -1 °C -5.8 °C 1020.9 hPa Calm     70% 0 mm 0 W/m2
22:44 -0.9 °C -5.7 °C 1020.9 hPa Calm     70% 0 mm 0 W/m2
22:49 -0.9 °C -5.7 °C 1020.9 hPa South 0.2 km/h 3.2 km/h 70% 0 mm 0 W/m2
22:54 -0.9 °C -5.7 °C 1021.2 hPa South 0.3 km/h 4.8 km/h 70% 0 mm 0 W/m2
22:59 -0.8 °C -5.6 °C 1021.2 hPa South 1 km/h 9.7 km/h 70% 0 mm 0 W/m2
23:00 -0.8 °C -5.6 °C 1021.2 hPa Calm   9.7 km/h 70% 0 mm 0 W/m2
Hartford County Weather
Compliments of Weather Underground - 2 mb